Palmer Park, Maryland
Current Conditions -  °F | °C
As of 8:25 PM on Tuesday 25 Nov 2014 (Local Time) from KCGS Reporting Station
Clear Clear  
Wind Chill:   Ceiling: Unl
Heat Index:   Visibility: 10mi
Dew Point:   Wind: 0mph
Humidity: 76%   Direction: NA
Pressure: 30.13"   Gusts: NA
Location:  38.9183°N, 76.8721°W
Report Text: KCGS 260125Z AUTO 00000KT 10SM CLR 07/03 A3013 RMK AO1
Loading
Personal Weather Stations






























Interactive Weather Map New forecast layout! Learn more

10-Day Weather Forecast

Advertisements
Track Severe Weather on mobile